Time;durP1;ratioP1;P1;durP2;ratioP2;P2;SDS_P1;SDS_P2;PMS_P1;PMS_P2;Temp;Humidity;BMP_temperature;BMP_pressure;BME280_temperature;BME280_humidity;BME280_pressure;Samples;Min_cycle;Max_cycle;Signal;HPM_P1;HPM_P2
2021/12/19 00:08:28;;;;;;;26.70;11.77;;;6.10;99.90;;;;;;6738054;88;20353;-76
2021/12/19 00:17:18;;;;;;;26.15;10.52;;;6.10;99.90;;;;;;6730370;88;20790;-76
2021/12/19 00:27:18;;;;;;;30.05;12.88;;;6.00;99.90;;;;;;6725821;88;20281;-75
2021/12/19 00:37:21;;;;;;;33.83;13.50;;;6.00;99.90;;;;;;6719557;88;20244;-75
2021/12/19 00:47:21;;;;;;;31.23;13.62;;;6.00;99.90;;;;;;6718280;88;20706;-74
2021/12/19 00:57:22;;;;;;;34.60;15.00;;;6.00;99.90;;;;;;6719973;88;20192;-75
2021/12/19 01:07:22;;;;;;;38.28;15.52;;;6.10;99.90;;;;;;6725973;88;20203;-75
2021/12/19 01:17:23;;;;;;;44.08;17.33;;;6.00;99.90;;;;;;6732024;88;20201;-75
2021/12/19 01:27:23;;;;;;;43.58;16.60;;;5.90;99.90;;;;;;6726427;88;20192;-75
2021/12/19 01:37:24;;;;;;;46.70;18.00;;;6.00;99.90;;;;;;6724358;88;20239;-75
2021/12/19 01:47:25;;;;;;;45.20;17.12;;;5.90;99.90;;;;;;6729675;88;20183;-75
2021/12/19 01:57:26;;;;;;;51.40;19.12;;;6.00;99.90;;;;;;6731084;88;20344;-74
2021/12/19 02:07:28;;;;;;;56.42;19.95;;;6.00;99.90;;;;;;6731729;88;20409;-75
2021/12/19 02:17:29;;;;;;;58.60;20.25;;;6.00;99.90;;;;;;6732189;88;20204;-76
2021/12/19 02:27:29;;;;;;;56.47;20.35;;;6.00;99.90;;;;;;6725832;88;20715;-74
2021/12/19 02:57:52;;;;;;;52.58;18.27;;;6.00;99.90;;;;;;6721586;88;20222;-74
2021/12/19 03:07:54;;;;;;;58.33;19.90;;;6.10;99.90;;;;;;6721366;88;20223;-74
2021/12/19 03:18:02;;;;;;;62.83;20.48;;;6.10;99.90;;;;;;6720367;88;20252;-74
2021/12/19 03:28:05;;;;;;;67.03;20.23;;;6.00;99.90;;;;;;6728226;88;20268;-74
2021/12/19 03:38:08;;;;;;;62.42;19.25;;;6.00;99.90;;;;;;6727265;88;20193;-74
2021/12/19 03:48:12;;;;;;;59.85;19.15;;;6.00;99.90;;;;;;6735780;88;20370;-74
2021/12/19 03:58:13;;;;;;;57.22;17.42;;;6.00;99.90;;;;;;6730243;88;20243;-74
2021/12/19 04:08:14;;;;;;;55.08;15.95;;;6.00;99.90;;;;;;6730266;88;20203;-75
2021/12/19 04:18:16;;;;;;;52.67;14.93;;;6.00;99.90;;;;;;6723859;88;20913;-74
2021/12/19 04:28:16;;;;;;;55.72;14.60;;;6.00;99.90;;;;;;6727835;88;20190;-74
2021/12/19 05:19:28;;;;;;;39.88;11.82;;;5.90;99.90;;;;;;6740276;88;20207;-74
2021/12/19 05:49:52;;;;;;;30.20;10.20;;;5.90;99.90;;;;;;6710010;88;20544;-78
2021/12/19 05:59:52;;;;;;;30.35;10.05;;;6.00;99.90;;;;;;6717512;88;20217;-80
2021/12/19 06:09:53;;;;;;;29.25;9.75;;;6.00;99.90;;;;;;6711234;88;20258;-78
2021/12/19 06:19:53;;;;;;;32.67;10.30;;;5.90;99.90;;;;;;6708392;88;20760;-78
2021/12/19 06:29:54;;;;;;;33.28;11.55;;;5.90;99.90;;;;;;6709138;88;20205;-79
2021/12/19 06:39:54;;;;;;;33.17;10.48;;;5.90;99.90;;;;;;6707611;88;20225;-78
2021/12/19 06:49:55;;;;;;;33.55;11.45;;;5.90;99.90;;;;;;6708247;88;20324;-80
2021/12/19 06:59:55;;;;;;;32.30;11.23;;;5.90;99.90;;;;;;6712446;88;20211;-80
2021/12/19 07:09:56;;;;;;;29.42;10.85;;;6.00;99.90;;;;;;6712216;88;20718;-79
2021/12/19 07:19:57;;;;;;;29.23;9.77;;;6.00;99.90;;;;;;6710745;88;20474;-78
2021/12/19 07:29:57;;;;;;;26.65;9.23;;;6.00;99.90;;;;;;6711013;88;20763;-78
2021/12/19 07:40:10;;;;;;;21.80;8.73;;;6.00;99.90;;;;;;6710313;88;20220;-77
2021/12/19 07:50:12;;;;;;;19.77;7.65;;;6.00;99.90;;;;;;6706552;88;20194;-77
2021/12/19 08:00:14;;;;;;;21.67;9.63;;;6.00;99.90;;;;;;6704844;88;20303;-76
2021/12/19 08:20:19;;;;;;;23.40;9.65;;;6.00;99.90;;;;;;6709560;88;20263;-79
2021/12/19 08:30:20;;;;;;;24.25;9.43;;;6.00;99.90;;;;;;6707974;88;20201;-77
2021/12/19 08:40:23;;;;;;;28.45;10.70;;;6.10;99.90;;;;;;6704102;88;20208;-78
2021/12/19 08:50:24;;;;;;;28.25;10.63;;;6.10;99.90;;;;;;6706644;88;20212;-77
2021/12/19 09:11:26;;;;;;;25.77;10.43;;;6.20;99.90;;;;;;6727347;88;20223;-81
2021/12/19 09:21:27;;;;;;;22.27;9.30;;;6.20;99.90;;;;;;6726505;88;20235;-78
2021/12/19 09:31:29;;;;;;;12.93;5.68;;;6.20;99.90;;;;;;6727539;88;20249;-78
2021/12/19 09:41:33;;;;;;;9.65;4.32;;;6.30;99.90;;;;;;6730070;88;20256;-78
2021/12/19 09:51:34;;;;;;;5.53;2.47;;;6.40;99.90;;;;;;6714813;88;20185;-80
2021/12/19 10:01:34;;;;;;;4.60;1.87;;;6.70;99.90;;;;;;6712769;88;20212;-79
2021/12/19 10:21:53;;;;;;;12.10;4.25;;;6.50;99.90;;;;;;6697994;88;20533;-80
2021/12/19 10:32:04;;;;;;;12.55;5.30;;;6.30;99.90;;;;;;6713380;88;20208;-80
2021/12/19 10:42:37;;;;;;;13.20;6.30;;;6.30;99.90;;;;;;6727871;88;20254;-82
2021/12/19 10:52:39;;;;;;;13.95;5.90;;;6.30;99.90;;;;;;6721421;88;20194;-79
2021/12/19 11:02:42;;;;;;;16.48;6.68;;;6.30;99.90;;;;;;6727178;88;20868;-81
2021/12/19 11:12:43;;;;;;;14.20;6.68;;;6.40;99.90;;;;;;6725151;88;20683;-80
2021/12/19 11:22:43;;;;;;;11.80;6.25;;;6.30;99.90;;;;;;6709180;88;20271;-81
2021/12/19 11:32:54;;;;;;;11.02;6.15;;;6.30;99.90;;;;;;6714702;88;20189;-78
2021/12/19 11:43:07;;;;;;;14.70;6.82;;;6.40;99.90;;;;;;6711665;88;20177;-80
2021/12/19 11:53:07;;;;;;;13.05;6.20;;;6.40;99.90;;;;;;6725994;88;20803;-81
2021/12/19 12:03:14;;;;;;;14.05;7.20;;;6.60;99.90;;;;;;6710620;88;20202;-79
2021/12/19 12:13:39;;;;;;;11.45;6.62;;;6.60;99.90;;;;;;6688723;88;20195;-80
2021/12/19 12:23:51;;;;;;;13.57;6.20;;;6.60;99.90;;;;;;6700453;88;20207;-82
2021/12/19 12:33:51;;;;;;;12.88;5.70;;;6.50;99.90;;;;;;6695404;88;20192;-78
2021/12/19 12:43:53;;;;;;;13.67;7.17;;;6.50;99.90;;;;;;6690309;88;20630;-79
2021/12/19 12:53:58;;;;;;;14.15;6.95;;;6.40;99.90;;;;;;6687299;88;20712;-81
2021/12/19 13:04:23;;;;;;;15.43;6.62;;;6.40;99.90;;;;;;6699258;88;20228;-81
2021/12/19 13:14:27;;;;;;;10.50;4.35;;;6.50;99.90;;;;;;6715456;88;20250;-80
2021/12/19 13:24:28;;;;;;;9.43;4.62;;;6.50;99.90;;;;;;6706826;88;20569;-80
2021/12/19 13:34:39;;;;;;;12.43;6.65;;;6.50;99.90;;;;;;6702430;88;20795;-80
2021/12/19 13:44:40;;;;;;;12.65;5.10;;;6.50;99.90;;;;;;6702800;88;20164;-80
2021/12/19 13:54:41;;;;;;;10.57;5.00;;;6.60;99.90;;;;;;6708845;88;20700;-80
2021/12/19 14:04:42;;;;;;;13.32;6.35;;;6.50;99.90;;;;;;6702916;88;20204;-80
2021/12/19 14:14:42;;;;;;;14.05;6.65;;;6.50;99.90;;;;;;6706097;88;20658;-80
2021/12/19 14:24:50;;;;;;;16.50;7.90;;;6.40;99.90;;;;;;6701859;88;20224;-77
2021/12/19 14:34:58;;;;;;;15.85;7.70;;;6.40;99.90;;;;;;6701109;88;20512;-77
2021/12/19 14:45:01;;;;;;;16.33;8.23;;;6.50;99.90;;;;;;6707202;88;20182;-80
2021/12/19 14:55:14;;;;;;;16.80;8.10;;;6.50;99.90;;;;;;6702289;88;20176;-78
2021/12/19 15:05:14;;;;;;;16.65;8.13;;;6.60;99.90;;;;;;6689467;88;20187;-78
2021/12/19 15:15:15;;;;;;;15.57;7.50;;;6.60;99.90;;;;;;6700114;88;20674;-80
2021/12/19 15:25:16;;;;;;;13.85;7.43;;;6.80;99.90;;;;;;6731708;88;20215;-80
2021/12/19 15:35:17;;;;;;;12.90;6.75;;;6.70;99.90;;;;;;6725667;88;20214;-80
2021/12/19 15:45:18;;;;;;;10.90;5.30;;;6.70;99.90;;;;;;6724893;88;20286;-80
2021/12/19 15:55:18;;;;;;;13.93;6.85;;;6.60;99.90;;;;;;6709652;88;20231;-80
2021/12/19 16:05:21;;;;;;;6.80;3.53;;;6.50;99.90;;;;;;6701360;88;20190;-79
2021/12/19 16:15:23;;;;;;;6.93;3.20;;;6.30;99.90;;;;;;6691292;88;20535;-79
2021/12/19 16:25:30;;;;;;;11.63;5.37;;;6.20;99.90;;;;;;6690399;88;20183;-79
2021/12/19 16:35:32;;;;;;;17.05;7.25;;;6.20;99.90;;;;;;6692289;88;20321;-78
2021/12/19 16:45:33;;;;;;;11.30;5.82;;;6.20;99.90;;;;;;6688677;88;20210;-79
2021/12/19 16:55:35;;;;;;;11.50;5.55;;;6.10;99.90;;;;;;6706836;88;20275;-77
2021/12/19 17:05:37;;;;;;;10.82;5.07;;;6.00;99.90;;;;;;6698967;88;22044;-78
2021/12/19 17:15:37;;;;;;;12.98;5.60;;;6.00;99.90;;;;;;6703820;88;20258;-80
2021/12/19 17:25:41;;;;;;;11.90;5.27;;;5.90;99.90;;;;;;6685850;88;20368;-78
2021/12/19 17:35:41;;;;;;;10.43;5.18;;;5.90;99.90;;;;;;6705214;88;20616;-80
2021/12/19 17:45:43;;;;;;;10.90;5.75;;;6.00;99.90;;;;;;6694506;88;20643;-81
2021/12/19 17:55:44;;;;;;;13.55;7.07;;;5.90;99.90;;;;;;6698182;88;20193;-79
2021/12/19 18:05:46;;;;;;;14.13;6.95;;;5.90;99.90;;;;;;6714048;88;20871;-80
2021/12/19 18:15:47;;;;;;;14.27;6.40;;;5.90;99.90;;;;;;6713539;88;20180;-82
2021/12/19 18:26:08;;;;;;;11.30;6.57;;;6.00;99.90;;;;;;6735670;77;20662;-81
2021/12/19 18:36:15;;;;;;;10.38;5.30;;;5.90;99.90;;;;;;6760698;88;20149;-81
2021/12/19 18:56:35;;;;;;;14.70;6.43;;;5.90;99.90;;;;;;6734065;88;20185;-78
2021/12/19 19:06:37;;;;;;;10.75;5.18;;;6.00;99.90;;;;;;6750409;88;20204;-81
2021/12/19 19:16:39;;;;;;;10.32;4.87;;;5.90;99.90;;;;;;6725432;88;20214;-79
2021/12/19 19:26:42;;;;;;;7.57;4.15;;;5.90;99.90;;;;;;6726542;88;20232;-80
2021/12/19 19:36:46;;;;;;;8.60;4.93;;;5.80;99.90;;;;;;6728170;88;20343;-79
2021/12/19 19:57:07;;;;;;;13.77;4.95;;;5.80;99.90;;;;;;6726327;88;20853;-80
2021/12/19 20:07:09;;;;;;;12.05;5.82;;;5.80;99.90;;;;;;6718166;88;20206;-79
2021/12/19 20:17:10;;;;;;;8.60;5.28;;;5.90;99.90;;;;;;6721898;88;20355;-80
2021/12/19 20:27:11;;;;;;;12.15;5.50;;;5.80;99.90;;;;;;6719898;88;20318;-79
2021/12/19 20:37:11;;;;;;;10.87;5.80;;;5.90;99.90;;;;;;6722238;88;20204;-79
2021/12/19 20:47:13;;;;;;;14.10;6.32;;;6.00;99.90;;;;;;6724768;88;20507;-79
2021/12/19 20:57:15;;;;;;;12.80;6.68;;;5.90;99.90;;;;;;6722245;88;20196;-80
2021/12/19 21:07:16;;;;;;;15.73;7.07;;;5.90;99.90;;;;;;6731298;88;20196;-80
2021/12/19 21:27:38;;;;;;;18.08;7.72;;;5.90;99.90;;;;;;6741185;88;20202;-79
2021/12/19 21:48:00;;;;;;;18.70;8.00;;;6.00;99.90;;;;;;6730927;88;20174;-80
2021/12/19 21:58:00;;;;;;;18.83;7.68;;;6.00;99.90;;;;;;6725038;88;20272;-80
2021/12/19 22:08:01;;;;;;;18.70;8.85;;;6.00;99.90;;;;;;6727688;88;20828;-80
2021/12/19 22:18:05;;;;;;;16.90;8.70;;;6.10;99.90;;;;;;6728028;88;20676;-78
2021/12/19 22:28:07;;;;;;;21.00;9.38;;;6.10;99.90;;;;;;6730303;88;20723;-80
2021/12/19 22:38:08;;;;;;;20.37;9.88;;;6.10;99.90;;;;;;6730594;88;20625;-77
2021/12/19 22:48:09;;;;;;;21.50;9.85;;;6.10;99.90;;;;;;6754930;88;20194;-78
2021/12/19 22:58:10;;;;;;;21.70;10.40;;;6.10;99.90;;;;;;6754789;88;20904;-78
2021/12/19 23:08:12;;;;;;;22.60;10.07;;;6.00;99.90;;;;;;6758785;88;20315;-79
2021/12/19 23:18:13;;;;;;;24.55;12.68;;;6.10;99.90;;;;;;6759038;88;20175;-78
2021/12/19 23:28:14;;;;;;;21.58;11.63;;;6.10;99.90;;;;;;6760286;87;20637;-78
2021/12/19 23:48:42;;;;;;;24.12;11.85;;;6.10;99.90;;;;;;6710408;88;20211;-76
2021/12/19 23:58:42;;;;;;;24.27;10.93;;;6.20;99.90;;;;;;6724049;88;20186;-77
